sensor_id;sensor_type;location;lat;lon;timestamp;pressure;altitude;pressure_sealevel;temperature;humidity
11347;BME280;5728;42.722;23.258;2023-04-25T00:00:38;93987.25;;;10.83;100.00
11347;BME280;5728;42.722;23.258;2023-04-25T00:03:06;93980.69;;;10.71;100.00
11347;BME280;5728;42.722;23.258;2023-04-25T00:05:34;93968.59;;;10.70;100.00
11347;BME280;5728;42.722;23.258;2023-04-25T00:08:02;93964.31;;;10.69;100.00
11347;BME280;5728;42.722;23.258;2023-04-25T00:10:29;93955.50;;;10.75;100.00
11347;BME280;5728;42.722;23.258;2023-04-25T00:12:56;93956.53;;;10.69;100.00
11347;BME280;5728;42.722;23.258;2023-04-25T00:15:23;93952.88;;;10.76;100.00
11347;BME280;5728;42.722;23.258;2023-04-25T00:17:50;93959.66;;;10.80;100.00
11347;BME280;5728;42.722;23.258;2023-04-25T00:20:19;93959.56;;;10.83;100.00
11347;BME280;5728;42.722;23.258;2023-04-25T00:22:47;93966.19;;;10.94;100.00
11347;BME280;5728;42.722;23.258;2023-04-25T00:25:13;93976.22;;;10.75;100.00
11347;BME280;5728;42.722;23.258;2023-04-25T00:27:40;93985.59;;;10.80;100.00
11347;BME280;5728;42.722;23.258;2023-04-25T00:30:08;93982.09;;;10.81;100.00
11347;BME280;5728;42.722;23.258;2023-04-25T00:32:35;93978.06;;;11.01;100.00
11347;BME280;5728;42.722;23.258;2023-04-25T00:35:01;93991.34;;;10.90;100.00
11347;BME280;5728;42.722;23.258;2023-04-25T00:37:29;93971.69;;;11.12;100.00
11347;BME280;5728;42.722;23.258;2023-04-25T00:39:57;93970.84;;;11.10;99.97
11347;BME280;5728;42.722;23.258;2023-04-25T00:42:25;93971.22;;;11.27;100.00
11347;BME280;5728;42.722;23.258;2023-04-25T00:44:52;93962.97;;;11.15;99.56
11347;BME280;5728;42.722;23.258;2023-04-25T00:47:19;93960.94;;;11.50;99.05
11347;BME280;5728;42.722;23.258;2023-04-25T00:49:46;93968.63;;;11.27;98.44
11347;BME280;5728;42.722;23.258;2023-04-25T00:52:13;93967.16;;;11.19;99.13
11347;BME280;5728;42.722;23.258;2023-04-25T00:54:41;93949.03;;;11.17;99.77
11347;BME280;5728;42.722;23.258;2023-04-25T00:57:08;93956.16;;;11.11;100.00
11347;BME280;5728;42.722;23.258;2023-04-25T00:59:36;93956.91;;;11.42;100.00
11347;BME280;5728;42.722;23.258;2023-04-25T01:02:04;93947.22;;;11.47;99.73
11347;BME280;5728;42.722;23.258;2023-04-25T01:04:30;93937.94;;;11.66;100.00
11347;BME280;5728;42.722;23.258;2023-04-25T01:06:58;93940.88;;;11.55;100.00
11347;BME280;5728;42.722;23.258;2023-04-25T01:09:25;93949.47;;;11.85;99.24
11347;BME280;5728;42.722;23.258;2023-04-25T01:11:53;93945.69;;;11.68;100.00
11347;BME280;5728;42.722;23.258;2023-04-25T01:14:20;93939.19;;;11.54;100.00
11347;BME280;5728;42.722;23.258;2023-04-25T01:16:47;93937.56;;;11.78;100.00
11347;BME280;5728;42.722;23.258;2023-04-25T01:19:16;93942.75;;;11.78;100.00
11347;BME280;5728;42.722;23.258;2023-04-25T01:21:45;93922.09;;;11.75;100.00
11347;BME280;5728;42.722;23.258;2023-04-25T01:24:12;93925.59;;;11.74;100.00
11347;BME280;5728;42.722;23.258;2023-04-25T01:26:40;93924.50;;;11.53;100.00
11347;BME280;5728;42.722;23.258;2023-04-25T01:29:10;93923.47;;;11.59;100.00
11347;BME280;5728;42.722;23.258;2023-04-25T01:31:37;93930.44;;;11.31;100.00
11347;BME280;5728;42.722;23.258;2023-04-25T01:34:04;93929.00;;;11.48;100.00
11347;BME280;5728;42.722;23.258;2023-04-25T01:36:31;93932.47;;;10.94;100.00
11347;BME280;5728;42.722;23.258;2023-04-25T01:38:59;93926.91;;;11.06;100.00
11347;BME280;5728;42.722;23.258;2023-04-25T01:41:27;93920.44;;;11.19;100.00
11347;BME280;5728;42.722;23.258;2023-04-25T01:43:54;93926.75;;;10.53;100.00
11347;BME280;5728;42.722;23.258;2023-04-25T01:46:21;93918.88;;;10.85;100.00
11347;BME280;5728;42.722;23.258;2023-04-25T01:48:48;93929.25;;;10.85;100.00
11347;BME280;5728;42.722;23.258;2023-04-25T01:51:15;93928.00;;;10.99;100.00
11347;BME280;5728;42.722;23.258;2023-04-25T01:53:42;93924.69;;;11.21;100.00
11347;BME280;5728;42.722;23.258;2023-04-25T01:56:11;93930.00;;;10.60;100.00
11347;BME280;5728;42.722;23.258;2023-04-25T01:58:38;93932.56;;;10.61;100.00
11347;BME280;5728;42.722;23.258;2023-04-25T02:01:05;93925.69;;;10.89;100.00
11347;BME280;5728;42.722;23.258;2023-04-25T02:03:32;93933.63;;;10.83;100.00
11347;BME280;5728;42.722;23.258;2023-04-25T02:05:58;93927.09;;;11.00;100.00
11347;BME280;5728;42.722;23.258;2023-04-25T02:08:25;93932.63;;;11.17;100.00
11347;BME280;5728;42.722;23.258;2023-04-25T02:10:52;93936.94;;;11.16;100.00
11347;BME280;5728;42.722;23.258;2023-04-25T02:13:20;93929.59;;;11.03;100.00
11347;BME280;5728;42.722;23.258;2023-04-25T02:15:47;93921.38;;;10.88;100.00
11347;BME280;5728;42.722;23.258;2023-04-25T02:18:13;93917.13;;;11.14;100.00
11347;BME280;5728;42.722;23.258;2023-04-25T02:20:42;93902.19;;;11.22;100.00
11347;BME280;5728;42.722;23.258;2023-04-25T02:23:09;93895.72;;;11.35;100.00
11347;BME280;5728;42.722;23.258;2023-04-25T02:25:36;93906.97;;;11.34;100.00
11347;BME280;5728;42.722;23.258;2023-04-25T02:28:03;93902.06;;;10.99;100.00
11347;BME280;5728;42.722;23.258;2023-04-25T02:30:31;93887.25;;;10.74;100.00
11347;BME280;5728;42.722;23.258;2023-04-25T02:32:57;93888.31;;;10.67;100.00
11347;BME280;5728;42.722;23.258;2023-04-25T02:35:24;93899.75;;;10.60;100.00
11347;BME280;5728;42.722;23.258;2023-04-25T02:37:51;93877.34;;;10.87;100.00
11347;BME280;5728;42.722;23.258;2023-04-25T02:40:18;93892.47;;;10.73;100.00
11347;BME280;5728;42.722;23.258;2023-04-25T02:42:44;93874.28;;;10.45;100.00
11347;BME280;5728;42.722;23.258;2023-04-25T02:45:12;93881.53;;;10.34;100.00
11347;BME280;5728;42.722;23.258;2023-04-25T02:47:43;93879.31;;;10.20;100.00
11347;BME280;5728;42.722;23.258;2023-04-25T02:50:10;93883.78;;;10.45;100.00
11347;BME280;5728;42.722;23.258;2023-04-25T02:52:36;93872.00;;;10.64;100.00
11347;BME280;5728;42.722;23.258;2023-04-25T02:55:06;93881.41;;;10.39;100.00
11347;BME280;5728;42.722;23.258;2023-04-25T02:57:33;93857.00;;;10.16;100.00
11347;BME280;5728;42.722;23.258;2023-04-25T03:00:00;93873.13;;;10.26;100.00
11347;BME280;5728;42.722;23.258;2023-04-25T03:02:27;93873.41;;;10.17;100.00
11347;BME280;5728;42.722;23.258;2023-04-25T03:04:55;93862.44;;;10.06;100.00
11347;BME280;5728;42.722;23.258;2023-04-25T03:07:21;93863.59;;;9.96;100.00
11347;BME280;5728;42.722;23.258;2023-04-25T03:09:48;93863.91;;;10.16;100.00
11347;BME280;5728;42.722;23.258;2023-04-25T03:12:15;93867.78;;;10.32;100.00
11347;BME280;5728;42.722;23.258;2023-04-25T03:14:42;93867.78;;;10.32;100.00
11347;BME280;5728;42.722;23.258;2023-04-25T03:17:08;93869.47;;;10.33;100.00
11347;BME280;5728;42.722;23.258;2023-04-25T03:19:35;93870.81;;;10.46;100.00
11347;BME280;5728;42.722;23.258;2023-04-25T03:22:03;93859.50;;;10.49;100.00
11347;BME280;5728;42.722;23.258;2023-04-25T03:24:30;93861.00;;;10.56;100.00
11347;BME280;5728;42.722;23.258;2023-04-25T03:26:57;93862.53;;;10.63;100.00
11347;BME280;5728;42.722;23.258;2023-04-25T03:29:23;93864.22;;;10.64;100.00
11347;BME280;5728;42.722;23.258;2023-04-25T03:31:51;93863.91;;;10.74;100.00
11347;BME280;5728;42.722;23.258;2023-04-25T03:34:18;93866.38;;;10.77;100.00
11347;BME280;5728;42.722;23.258;2023-04-25T03:36:46;93870.28;;;10.92;100.00
11347;BME280;5728;42.722;23.258;2023-04-25T03:39:14;93885.06;;;10.88;100.00
11347;BME280;5728;42.722;23.258;2023-04-25T03:41:41;93868.97;;;10.77;100.00
11347;BME280;5728;42.722;23.258;2023-04-25T03:44:08;93867.72;;;10.90;100.00
11347;BME280;5728;42.722;23.258;2023-04-25T03:46:35;93868.03;;;10.80;100.00
11347;BME280;5728;42.722;23.258;2023-04-25T03:49:02;93867.34;;;10.75;100.00
11347;BME280;5728;42.722;23.258;2023-04-25T03:51:28;93865.34;;;10.55;100.00
11347;BME280;5728;42.722;23.258;2023-04-25T03:53:56;93868.75;;;10.28;100.00
11347;BME280;5728;42.722;23.258;2023-04-25T03:56:24;93878.53;;;10.48;100.00
11347;BME280;5728;42.722;23.258;2023-04-25T03:58:51;93874.41;;;10.70;100.00
11347;BME280;5728;42.722;23.258;2023-04-25T04:01:18;93879.34;;;10.77;100.00
11347;BME280;5728;42.722;23.258;2023-04-25T04:03:45;93883.91;;;10.99;100.00
11347;BME280;5728;42.722;23.258;2023-04-25T04:06:11;93872.59;;;11.27;100.00
11347;BME280;5728;42.722;23.258;2023-04-25T04:08:38;93868.84;;;11.36;100.00
11347;BME280;5728;42.722;23.258;2023-04-25T04:11:06;93868.69;;;11.40;100.00
11347;BME280;5728;42.722;23.258;2023-04-25T04:13:34;93872.53;;;11.55;100.00
11347;BME280;5728;42.722;23.258;2023-04-25T04:16:01;93871.72;;;11.53;100.00
11347;BME280;5728;42.722;23.258;2023-04-25T04:18:29;93870.84;;;11.54;100.00
11347;BME280;5728;42.722;23.258;2023-04-25T04:20:56;93865.28;;;11.65;100.00
11347;BME280;5728;42.722;23.258;2023-04-25T04:23:23;93853.94;;;11.67;100.00
11347;BME280;5728;42.722;23.258;2023-04-25T04:25:52;93863.94;;;11.53;100.00
11347;BME280;5728;42.722;23.258;2023-04-25T04:28:19;93872.28;;;11.63;100.00
11347;BME280;5728;42.722;23.258;2023-04-25T04:30:48;93868.25;;;11.28;100.00
11347;BME280;5728;42.722;23.258;2023-04-25T04:33:16;93875.25;;;11.52;100.00
11347;BME280;5728;42.722;23.258;2023-04-25T04:35:44;93870.19;;;11.47;100.00
11347;BME280;5728;42.722;23.258;2023-04-25T04:38:12;93877.59;;;11.58;100.00
11347;BME280;5728;42.722;23.258;2023-04-25T04:40:41;93876.13;;;11.51;100.00
11347;BME280;5728;42.722;23.258;2023-04-25T04:43:08;93875.16;;;11.55;100.00
11347;BME280;5728;42.722;23.258;2023-04-25T04:45:35;93875.53;;;11.43;100.00
11347;BME280;5728;42.722;23.258;2023-04-25T04:48:05;93890.31;;;11.41;100.00
11347;BME280;5728;42.722;23.258;2023-04-25T04:50:32;93887.31;;;11.53;100.00
11347;BME280;5728;42.722;23.258;2023-04-25T04:52:59;93890.22;;;11.44;100.00
11347;BME280;5728;42.722;23.258;2023-04-25T04:55:26;93877.84;;;11.52;100.00
11347;BME280;5728;42.722;23.258;2023-04-25T04:57:52;93888.91;;;11.31;100.00
11347;BME280;5728;42.722;23.258;2023-04-25T05:00:19;93891.69;;;11.51;100.00
11347;BME280;5728;42.722;23.258;2023-04-25T05:02:47;93907.50;;;11.45;100.00
11347;BME280;5728;42.722;23.258;2023-04-25T05:05:15;93892.31;;;11.59;100.00
11347;BME280;5728;42.722;23.258;2023-04-25T05:07:42;93906.78;;;11.40;100.00
11347;BME280;5728;42.722;23.258;2023-04-25T05:10:09;93898.00;;;11.44;100.00
11347;BME280;5728;42.722;23.258;2023-04-25T05:12:36;93905.53;;;11.51;100.00
11347;BME280;5728;42.722;23.258;2023-04-25T05:15:04;93925.09;;;11.62;100.00
11347;BME280;5728;42.722;23.258;2023-04-25T05:17:30;93907.00;;;11.60;100.00
11347;BME280;5728;42.722;23.258;2023-04-25T05:19:58;93912.06;;;11.63;100.00
11347;BME280;5728;42.722;23.258;2023-04-25T05:22:26;93918.88;;;11.67;100.00
11347;BME280;5728;42.722;23.258;2023-04-25T05:24:53;93911.38;;;11.84;100.00
11347;BME280;5728;42.722;23.258;2023-04-25T05:27:19;93903.00;;;12.01;100.00
11347;BME280;5728;42.722;23.258;2023-04-25T05:29:46;93909.69;;;11.83;100.00
11347;BME280;5728;42.722;23.258;2023-04-25T05:32:13;93901.94;;;11.82;100.00
11347;BME280;5728;42.722;23.258;2023-04-25T05:34:39;93898.88;;;11.95;100.00
11347;BME280;5728;42.722;23.258;2023-04-25T05:37:07;93911.75;;;11.98;100.00
11347;BME280;5728;42.722;23.258;2023-04-25T05:39:35;93899.28;;;11.83;100.00
11347;BME280;5728;42.722;23.258;2023-04-25T05:42:02;93893.56;;;11.98;100.00
11347;BME280;5728;42.722;23.258;2023-04-25T05:44:30;93898.66;;;12.01;100.00
11347;BME280;5728;42.722;23.258;2023-04-25T05:46:57;93893.78;;;12.17;100.00
11347;BME280;5728;42.722;23.258;2023-04-25T05:49:24;93890.47;;;12.37;100.00
11347;BME280;5728;42.722;23.258;2023-04-25T05:51:51;93893.75;;;12.42;100.00
11347;BME280;5728;42.722;23.258;2023-04-25T05:54:17;93892.69;;;12.47;100.00
11347;BME280;5728;42.722;23.258;2023-04-25T05:56:45;93900.97;;;12.57;100.00
11347;BME280;5728;42.722;23.258;2023-04-25T05:59:12;93898.56;;;12.75;100.00
11347;BME280;5728;42.722;23.258;2023-04-25T06:01:39;93903.78;;;12.97;99.28
11347;BME280;5728;42.722;23.258;2023-04-25T06:04:05;93895.97;;;12.97;99.21
11347;BME280;5728;42.722;23.258;2023-04-25T06:06:32;93897.38;;;13.06;99.24
11347;BME280;5728;42.722;23.258;2023-04-25T06:08:59;93894.16;;;12.99;98.72
11347;BME280;5728;42.722;23.258;2023-04-25T06:11:25;93894.13;;;13.01;98.51
11347;BME280;5728;42.722;23.258;2023-04-25T06:13:54;93887.09;;;13.03;98.95
11347;BME280;5728;42.722;23.258;2023-04-25T06:16:20;93893.13;;;13.26;97.84
11347;BME280;5728;42.722;23.258;2023-04-25T06:18:47;93896.44;;;13.30;96.86
11347;BME280;5728;42.722;23.258;2023-04-25T06:21:13;93901.91;;;13.46;96.76
11347;BME280;5728;42.722;23.258;2023-04-25T06:23:40;93900.69;;;13.54;96.23
11347;BME280;5728;42.722;23.258;2023-04-25T06:26:07;93900.63;;;13.56;98.07
11347;BME280;5728;42.722;23.258;2023-04-25T06:28:33;93896.88;;;14.03;96.96
11347;BME280;5728;42.722;23.258;2023-04-25T06:31:02;93902.63;;;14.11;94.82
11347;BME280;5728;42.722;23.258;2023-04-25T06:33:28;93894.13;;;14.46;94.68
11347;BME280;5728;42.722;23.258;2023-04-25T06:35:55;93906.63;;;14.40;93.48
11347;BME280;5728;42.722;23.258;2023-04-25T06:38:22;93905.59;;;14.62;94.00
11347;BME280;5728;42.722;23.258;2023-04-25T06:40:48;93903.34;;;14.55;92.91
11347;BME280;5728;42.722;23.258;2023-04-25T06:43:15;93906.19;;;14.88;91.95
11347;BME280;5728;42.722;23.258;2023-04-25T06:45:42;93908.44;;;14.95;89.09
11347;BME280;5728;42.722;23.258;2023-04-25T06:48:10;93903.75;;;14.64;90.44
11347;BME280;5728;42.722;23.258;2023-04-25T06:50:36;93904.31;;;14.71;90.05
11347;BME280;5728;42.722;23.258;2023-04-25T06:53:03;93905.00;;;14.37;91.51
11347;BME280;5728;42.722;23.258;2023-04-25T06:55:30;93906.09;;;14.32;92.49
11347;BME280;5728;42.722;23.258;2023-04-25T06:57:56;93908.41;;;14.18;92.28
11347;BME280;5728;42.722;23.258;2023-04-25T07:00:23;93906.94;;;13.92;94.00
11347;BME280;5728;42.722;23.258;2023-04-25T07:02:50;93906.97;;;14.11;94.91
11347;BME280;5728;42.722;23.258;2023-04-25T07:05:18;93911.75;;;14.01;93.47
11347;BME280;5728;42.722;23.258;2023-04-25T07:07:45;93912.16;;;14.12;93.68
11347;BME280;5728;42.722;23.258;2023-04-25T07:10:12;93912.59;;;14.42;92.27
11347;BME280;5728;42.722;23.258;2023-04-25T07:12:39;93907.75;;;14.13;91.99
11347;BME280;5728;42.722;23.258;2023-04-25T07:15:06;93912.72;;;13.98;93.25
11347;BME280;5728;42.722;23.258;2023-04-25T07:17:35;93916.06;;;14.22;92.97
11347;BME280;5728;42.722;23.258;2023-04-25T07:20:02;93911.09;;;14.36;92.03
11347;BME280;5728;42.722;23.258;2023-04-25T07:22:32;93908.59;;;14.53;91.62
11347;BME280;5728;42.722;23.258;2023-04-25T07:24:59;93902.63;;;14.51;90.24
11347;BME280;5728;42.722;23.258;2023-04-25T07:27:26;93909.59;;;14.51;91.20
11347;BME280;5728;42.722;23.258;2023-04-25T07:29:52;93903.34;;;14.74;89.99
11347;BME280;5728;42.722;23.258;2023-04-25T07:32:19;93898.06;;;14.75;88.07
11347;BME280;5728;42.722;23.258;2023-04-25T07:34:46;93903.63;;;14.86;88.84
11347;BME280;5728;42.722;23.258;2023-04-25T07:37:12;93896.16;;;14.79;88.48
11347;BME280;5728;42.722;23.258;2023-04-25T07:39:41;93888.38;;;14.96;88.04
11347;BME280;5728;42.722;23.258;2023-04-25T07:42:08;93888.25;;;14.99;87.18
11347;BME280;5728;42.722;23.258;2023-04-25T07:44:35;93894.06;;;15.05;86.59
11347;BME280;5728;42.722;23.258;2023-04-25T07:47:04;93893.69;;;15.13;87.43
11347;BME280;5728;42.722;23.258;2023-04-25T07:49:32;93895.56;;;15.47;84.99
11347;BME280;5728;42.722;23.258;2023-04-25T07:51:59;93892.50;;;15.56;83.97
11347;BME280;5728;42.722;23.258;2023-04-25T07:54:26;93894.31;;;15.72;83.10
11347;BME280;5728;42.722;23.258;2023-04-25T07:56:54;93895.09;;;15.74;81.65
11347;BME280;5728;42.722;23.258;2023-04-25T07:59:20;93891.63;;;15.74;82.63
11347;BME280;5728;42.722;23.258;2023-04-25T08:01:48;93885.56;;;16.08;82.10
11347;BME280;5728;42.722;23.258;2023-04-25T08:04:14;93876.78;;;16.26;81.57
11347;BME280;5728;42.722;23.258;2023-04-25T08:06:41;93879.84;;;16.17;80.66
11347;BME280;5728;42.722;23.258;2023-04-25T08:09:08;93873.38;;;16.24;79.88
11347;BME280;5728;42.722;23.258;2023-04-25T08:11:35;93881.22;;;16.41;79.32
11347;BME280;5728;42.722;23.258;2023-04-25T08:14:05;93879.31;;;15.76;81.16
11347;BME280;5728;42.722;23.258;2023-04-25T08:16:32;93878.56;;;15.38;81.28
11347;BME280;5728;42.722;23.258;2023-04-25T08:18:59;93882.50;;;15.82;80.06
11347;BME280;5728;42.722;23.258;2023-04-25T08:21:26;93888.09;;;16.09;82.41
11347;BME280;5728;42.722;23.258;2023-04-25T08:23:53;93892.63;;;15.88;79.49
11347;BME280;5728;42.722;23.258;2023-04-25T08:26:20;93897.09;;;15.51;82.88
11347;BME280;5728;42.722;23.258;2023-04-25T08:28:47;93906.56;;;15.53;86.32
11347;BME280;5728;42.722;23.258;2023-04-25T08:31:15;93894.72;;;15.46;85.94
11347;BME280;5728;42.722;23.258;2023-04-25T08:33:42;93887.59;;;15.31;87.30
11347;BME280;5728;42.722;23.258;2023-04-25T08:36:10;93912.81;;;14.37;88.90
11347;BME280;5728;42.722;23.258;2023-04-25T08:38:37;93900.75;;;13.94;84.97
11347;BME280;5728;42.722;23.258;2023-04-25T08:41:05;93888.44;;;13.56;82.07
11347;BME280;5728;42.722;23.258;2023-04-25T08:43:34;93878.63;;;13.83;88.92
11347;BME280;5728;42.722;23.258;2023-04-25T08:46:01;93882.81;;;14.47;99.04
11347;BME280;5728;42.722;23.258;2023-04-25T08:48:32;93882.25;;;14.59;100.00
11347;BME280;5728;42.722;23.258;2023-04-25T08:51:01;93874.28;;;15.00;100.00
11347;BME280;5728;42.722;23.258;2023-04-25T08:53:30;93867.63;;;15.30;100.00
11347;BME280;5728;42.722;23.258;2023-04-25T08:55:59;93864.34;;;15.44;99.46
11347;BME280;5728;42.722;23.258;2023-04-25T08:58:27;93861.09;;;15.74;100.00
11347;BME280;5728;42.722;23.258;2023-04-25T09:00:54;93863.47;;;15.96;98.32
11347;BME280;5728;42.722;23.258;2023-04-25T09:03:20;93851.19;;;15.98;98.11
11347;BME280;5728;42.722;23.258;2023-04-25T09:05:49;93861.72;;;15.96;95.64
11347;BME280;5728;42.722;23.258;2023-04-25T09:08:15;93852.31;;;16.27;92.11
11347;BME280;5728;42.722;23.258;2023-04-25T09:10:42;93847.44;;;16.53;91.26
11347;BME280;5728;42.722;23.258;2023-04-25T09:13:10;93847.81;;;16.63;93.17
11347;BME280;5728;42.722;23.258;2023-04-25T09:15:48;93849.25;;;16.84;90.93
11347;BME280;5728;42.722;23.258;2023-04-25T09:18:22;93842.94;;;17.19;89.09
11347;BME280;5728;42.722;23.258;2023-04-25T09:20:51;93835.91;;;17.36;89.76
11347;BME280;5728;42.722;23.258;2023-04-25T09:23:19;93835.97;;;17.50;86.74
11347;BME280;5728;42.722;23.258;2023-04-25T09:25:47;93826.94;;;18.15;92.10
11347;BME280;5728;42.722;23.258;2023-04-25T09:28:14;93825.19;;;18.43;87.02
11347;BME280;5728;42.722;23.258;2023-04-25T09:30:41;93830.63;;;18.40;77.95
11347;BME280;5728;42.722;23.258;2023-04-25T09:33:09;93828.59;;;18.88;80.86
11347;BME280;5728;42.722;23.258;2023-04-25T09:35:37;93836.47;;;19.02;79.10
11347;BME280;5728;42.722;23.258;2023-04-25T09:38:11;93845.50;;;18.70;77.11
11347;BME280;5728;42.722;23.258;2023-04-25T09:40:42;93854.94;;;18.58;77.49
11347;BME280;5728;42.722;23.258;2023-04-25T09:43:09;93847.84;;;18.30;75.50
11347;BME280;5728;42.722;23.258;2023-04-25T09:45:43;93839.94;;;18.88;75.71
11347;BME280;5728;42.722;23.258;2023-04-25T09:48:11;93839.44;;;19.38;73.01
11347;BME280;5728;42.722;23.258;2023-04-25T09:50:38;93840.78;;;18.89;72.28
11347;BME280;5728;42.722;23.258;2023-04-25T09:53:05;93839.47;;;19.10;70.07
11347;BME280;5728;42.722;23.258;2023-04-25T09:55:34;93837.84;;;19.62;68.37
11347;BME280;5728;42.722;23.258;2023-04-25T09:58:04;93842.03;;;20.31;67.27
11347;BME280;5728;42.722;23.258;2023-04-25T10:00:32;93836.53;;;20.97;64.61
11347;BME280;5728;42.722;23.258;2023-04-25T10:03:00;93838.59;;;21.66;60.64
11347;BME280;5728;42.722;23.258;2023-04-25T10:05:30;93842.59;;;22.19;55.83
11347;BME280;5728;42.722;23.258;2023-04-25T10:07:59;93829.13;;;22.57;52.49
11347;BME280;5728;42.722;23.258;2023-04-25T10:10:29;93832.91;;;21.36;54.13
11347;BME280;5728;42.722;23.258;2023-04-25T10:13:03;93833.59;;;21.14;56.43
11347;BME280;5728;42.722;23.258;2023-04-25T10:15:31;93855.31;;;20.42;57.05
11347;BME280;5728;42.722;23.258;2023-04-25T10:17:58;93855.22;;;20.31;56.02
11347;BME280;5728;42.722;23.258;2023-04-25T10:20:26;93860.28;;;19.68;59.45
11347;BME280;5728;42.722;23.258;2023-04-25T10:22:54;93846.63;;;19.76;59.38
11347;BME280;5728;42.722;23.258;2023-04-25T10:25:23;93853.81;;;19.59;59.03
11347;BME280;5728;42.722;23.258;2023-04-25T10:27:50;93854.38;;;18.81;59.21
11347;BME280;5728;42.722;23.258;2023-04-25T10:30:18;93862.03;;;17.06;61.34
11347;BME280;5728;42.722;23.258;2023-04-25T10:32:46;93863.09;;;16.21;64.57
11347;BME280;5728;42.722;23.258;2023-04-25T10:35:16;93869.03;;;15.37;68.18
11347;BME280;5728;42.722;23.258;2023-04-25T10:37:59;93861.09;;;15.39;74.07
11347;BME280;5728;42.722;23.258;2023-04-25T10:40:26;93851.72;;;15.34;74.65
11347;BME280;5728;42.722;23.258;2023-04-25T10:42:53;93850.50;;;15.60;73.69
11347;BME280;5728;42.722;23.258;2023-04-25T10:45:22;93840.59;;;16.34;72.26
11347;BME280;5728;42.722;23.258;2023-04-25T10:47:49;93836.75;;;17.05;70.50
11347;BME280;5728;42.722;23.258;2023-04-25T10:50:16;93830.53;;;17.84;69.06
11347;BME280;5728;42.722;23.258;2023-04-25T10:52:43;93835.81;;;18.56;67.80
11347;BME280;5728;42.722;23.258;2023-04-25T10:55:10;93834.72;;;18.16;61.81
11347;BME280;5728;42.722;23.258;2023-04-25T10:57:38;93825.25;;;18.58;62.92
11347;BME280;5728;42.722;23.258;2023-04-25T11:00:08;93836.94;;;17.94;59.39
11347;BME280;5728;42.722;23.258;2023-04-25T11:02:40;93834.72;;;17.41;57.67
11347;BME280;5728;42.722;23.258;2023-04-25T11:05:08;93834.06;;;17.53;58.50
11347;BME280;5728;42.722;23.258;2023-04-25T11:07:38;93831.97;;;17.90;56.64
11347;BME280;5728;42.722;23.258;2023-04-25T11:10:10;93824.25;;;18.44;53.17
11347;BME280;5728;42.722;23.258;2023-04-25T11:12:37;93820.53;;;18.77;54.03
11347;BME280;5728;42.722;23.258;2023-04-25T11:15:05;93822.78;;;18.69;49.87
11347;BME280;5728;42.722;23.258;2023-04-25T11:17:33;93819.75;;;18.32;52.62
11347;BME280;5728;42.722;23.258;2023-04-25T11:20:01;93818.44;;;18.39;53.32
11347;BME280;5728;42.722;23.258;2023-04-25T11:22:31;93829.38;;;17.74;55.14
11347;BME280;5728;42.722;23.258;2023-04-25T11:25:00;93818.75;;;17.91;59.50
11347;BME280;5728;42.722;23.258;2023-04-25T11:27:30;93802.03;;;17.78;61.07
11347;BME280;5728;42.722;23.258;2023-04-25T11:29:57;93811.75;;;18.06;60.59
11347;BME280;5728;42.722;23.258;2023-04-25T11:32:24;93815.59;;;17.55;62.14
11347;BME280;5728;42.722;23.258;2023-04-25T11:34:52;93816.34;;;16.96;62.18
11347;BME280;5728;42.722;23.258;2023-04-25T11:37:20;93809.88;;;16.37;63.27
11347;BME280;5728;42.722;23.258;2023-04-25T11:39:47;93812.78;;;16.48;63.61
11347;BME280;5728;42.722;23.258;2023-04-25T11:42:14;93813.53;;;15.68;64.11
11347;BME280;5728;42.722;23.258;2023-04-25T11:44:41;93813.16;;;15.75;64.51
11347;BME280;5728;42.722;23.258;2023-04-25T11:47:07;93814.66;;;15.45;65.66
11347;BME280;5728;42.722;23.258;2023-04-25T11:49:35;93810.81;;;15.86;66.95
11347;BME280;5728;42.722;23.258;2023-04-25T11:52:02;93809.81;;;14.83;66.27
11347;BME280;5728;42.722;23.258;2023-04-25T11:54:31;93809.53;;;14.70;67.18
11347;BME280;5728;42.722;23.258;2023-04-25T11:56:58;93804.28;;;15.08;66.76
11347;BME280;5728;42.722;23.258;2023-04-25T11:59:25;93803.69;;;15.20;66.08
11347;BME280;5728;42.722;23.258;2023-04-25T12:01:53;93793.94;;;15.23;65.65
11347;BME280;5728;42.722;23.258;2023-04-25T12:04:20;93797.25;;;15.44;64.94
11347;BME280;5728;42.722;23.258;2023-04-25T12:06:48;93788.09;;;15.18;65.33
11347;BME280;5728;42.722;23.258;2023-04-25T12:09:17;93801.09;;;15.37;65.29
11347;BME280;5728;42.722;23.258;2023-04-25T12:11:47;93801.25;;;15.34;62.79
11347;BME280;5728;42.722;23.258;2023-04-25T12:14:21;93801.09;;;15.37;63.54
11347;BME280;5728;42.722;23.258;2023-04-25T12:16:49;93801.13;;;15.54;61.77
11347;BME280;5728;42.722;23.258;2023-04-25T12:19:19;93840.66;;;15.82;61.78
11347;BME280;5728;42.722;23.258;2023-04-25T12:21:46;93847.78;;;15.26;68.87
11347;BME280;5728;42.722;23.258;2023-04-25T12:24:15;93856.50;;;14.70;79.40
11347;BME280;5728;42.722;23.258;2023-04-25T12:26:50;93857.97;;;13.78;80.25
11347;BME280;5728;42.722;23.258;2023-04-25T12:29:19;93853.53;;;13.18;82.81
11347;BME280;5728;42.722;23.258;2023-04-25T12:31:46;93852.75;;;13.16;84.60
11347;BME280;5728;42.722;23.258;2023-04-25T12:34:13;93857.69;;;13.22;86.46
11347;BME280;5728;42.722;23.258;2023-04-25T12:36:40;93850.19;;;13.15;84.09
11347;BME280;5728;42.722;23.258;2023-04-25T12:39:07;93847.34;;;13.21;85.93
11347;BME280;5728;42.722;23.258;2023-04-25T12:41:34;93853.66;;;13.57;87.06
11347;BME280;5728;42.722;23.258;2023-04-25T12:44:02;93857.19;;;13.56;85.91
11347;BME280;5728;42.722;23.258;2023-04-25T12:46:29;93847.94;;;14.10;85.79
11347;BME280;5728;42.722;23.258;2023-04-25T12:48:55;93861.16;;;14.05;83.31
11347;BME280;5728;42.722;23.258;2023-04-25T12:51:22;93853.41;;;14.24;83.93
11347;BME280;5728;42.722;23.258;2023-04-25T12:53:50;93855.81;;;14.08;83.31
11347;BME280;5728;42.722;23.258;2023-04-25T12:56:17;93856.75;;;13.87;84.22